sensor_id;sensor_type;location;lat;lon;timestamp;P1;durP1;ratioP1;P2;durP2;ratioP2
18520;SDS011;9390;51.244;6.982;2023-11-21T00:01:50;67.68;;;22.33;;
18520;SDS011;9390;51.244;6.982;2023-11-21T00:04:22;56.65;;;23.73;;
18520;SDS011;9390;51.244;6.982;2023-11-21T00:06:53;52.70;;;21.30;;
18520;SDS011;9390;51.244;6.982;2023-11-21T00:09:26;43.67;;;18.60;;
18520;SDS011;9390;51.244;6.982;2023-11-21T00:11:58;68.90;;;19.30;;
18520;SDS011;9390;51.244;6.982;2023-11-21T00:14:30;57.50;;;18.10;;
18520;SDS011;9390;51.244;6.982;2023-11-21T00:17:01;63.95;;;19.70;;
18520;SDS011;9390;51.244;6.982;2023-11-21T00:19:33;51.50;;;20.25;;
18520;SDS011;9390;51.244;6.982;2023-11-21T00:22:04;53.92;;;18.33;;
18520;SDS011;9390;51.244;6.982;2023-11-21T00:24:38;66.82;;;19.08;;
18520;SDS011;9390;51.244;6.982;2023-11-21T00:27:09;51.22;;;16.65;;
18520;SDS011;9390;51.244;6.982;2023-11-21T00:29:41;48.85;;;18.15;;
18520;SDS011;9390;51.244;6.982;2023-11-21T00:32:13;51.22;;;18.15;;
18520;SDS011;9390;51.244;6.982;2023-11-21T00:34:44;54.92;;;18.73;;
18520;SDS011;9390;51.244;6.982;2023-11-21T00:37:15;64.20;;;17.40;;
18520;SDS011;9390;51.244;6.982;2023-11-21T00:39:48;43.53;;;17.35;;
18520;SDS011;9390;51.244;6.982;2023-11-21T00:42:19;45.42;;;17.75;;
18520;SDS011;9390;51.244;6.982;2023-11-21T00:44:51;52.17;;;17.35;;
18520;SDS011;9390;51.244;6.982;2023-11-21T00:47:23;50.38;;;18.05;;
18520;SDS011;9390;51.244;6.982;2023-11-21T00:49:54;52.10;;;17.70;;
18520;SDS011;9390;51.244;6.982;2023-11-21T00:52:26;54.63;;;17.65;;
18520;SDS011;9390;51.244;6.982;2023-11-21T00:54:59;54.38;;;18.48;;
18520;SDS011;9390;51.244;6.982;2023-11-21T00:57:31;49.90;;;17.45;;
18520;SDS011;9390;51.244;6.982;2023-11-21T01:00:03;48.22;;;18.50;;
18520;SDS011;9390;51.244;6.982;2023-11-21T01:02:37;50.55;;;18.42;;
18520;SDS011;9390;51.244;6.982;2023-11-21T01:05:09;69.93;;;19.88;;
18520;SDS011;9390;51.244;6.982;2023-11-21T01:07:41;60.28;;;19.08;;
18520;SDS011;9390;51.244;6.982;2023-11-21T01:10:14;60.58;;;18.77;;
18520;SDS011;9390;51.244;6.982;2023-11-21T01:12:47;53.67;;;18.50;;
18520;SDS011;9390;51.244;6.982;2023-11-21T01:15:19;57.97;;;18.90;;
18520;SDS011;9390;51.244;6.982;2023-11-21T01:17:50;61.85;;;19.35;;
18520;SDS011;9390;51.244;6.982;2023-11-21T01:20:22;62.72;;;19.42;;
18520;SDS011;9390;51.244;6.982;2023-11-21T01:22:53;57.13;;;18.83;;
18520;SDS011;9390;51.244;6.982;2023-11-21T01:25:26;65.55;;;18.90;;
18520;SDS011;9390;51.244;6.982;2023-11-21T01:27:58;60.08;;;17.48;;
18520;SDS011;9390;51.244;6.982;2023-11-21T01:30:29;56.72;;;18.35;;
18520;SDS011;9390;51.244;6.982;2023-11-21T01:33:02;61.08;;;18.40;;
18520;SDS011;9390;51.244;6.982;2023-11-21T01:35:34;60.50;;;19.00;;
18520;SDS011;9390;51.244;6.982;2023-11-21T01:38:05;51.13;;;17.63;;
18520;SDS011;9390;51.244;6.982;2023-11-21T01:40:39;60.13;;;19.65;;
18520;SDS011;9390;51.244;6.982;2023-11-21T01:43:10;57.95;;;18.92;;
18520;SDS011;9390;51.244;6.982;2023-11-21T01:45:42;62.17;;;20.00;;
18520;SDS011;9390;51.244;6.982;2023-11-21T01:50:46;77.82;;;19.50;;
18520;SDS011;9390;51.244;6.982;2023-11-21T01:53:18;82.70;;;20.40;;
18520;SDS011;9390;51.244;6.982;2023-11-21T01:55:51;90.85;;;21.02;;
18520;SDS011;9390;51.244;6.982;2023-11-21T02:00:54;109.35;;;20.50;;
18520;SDS011;9390;51.244;6.982;2023-11-21T02:03:26;101.60;;;21.83;;
18520;SDS011;9390;51.244;6.982;2023-11-21T02:05:57;90.68;;;19.65;;
18520;SDS011;9390;51.244;6.982;2023-11-21T02:08:29;60.17;;;19.55;;
18520;SDS011;9390;51.244;6.982;2023-11-21T02:11:02;91.35;;;20.55;;
18520;SDS011;9390;51.244;6.982;2023-11-21T02:13:34;95.85;;;20.45;;
18520;SDS011;9390;51.244;6.982;2023-11-21T02:16:06;70.38;;;19.63;;
18520;SDS011;9390;51.244;6.982;2023-11-21T02:18:39;70.38;;;19.13;;
18520;SDS011;9390;51.244;6.982;2023-11-21T02:21:11;59.33;;;18.13;;
18520;SDS011;9390;51.244;6.982;2023-11-21T02:23:44;68.80;;;18.80;;
18520;SDS011;9390;51.244;6.982;2023-11-21T02:26:16;48.72;;;17.08;;
18520;SDS011;9390;51.244;6.982;2023-11-21T02:28:48;66.22;;;18.15;;
18520;SDS011;9390;51.244;6.982;2023-11-21T02:31:19;70.50;;;18.13;;
18520;SDS011;9390;51.244;6.982;2023-11-21T02:33:50;69.78;;;17.63;;
18520;SDS011;9390;51.244;6.982;2023-11-21T02:36:22;70.07;;;21.13;;
18520;SDS011;9390;51.244;6.982;2023-11-21T02:38:55;69.28;;;19.83;;
18520;SDS011;9390;51.244;6.982;2023-11-21T02:41:26;73.15;;;19.08;;
18520;SDS011;9390;51.244;6.982;2023-11-21T02:43:58;81.93;;;19.90;;
18520;SDS011;9390;51.244;6.982;2023-11-21T02:46:30;81.57;;;18.05;;
18520;SDS011;9390;51.244;6.982;2023-11-21T02:49:03;122.65;;;20.63;;
18520;SDS011;9390;51.244;6.982;2023-11-21T02:51:36;115.88;;;20.15;;
18520;SDS011;9390;51.244;6.982;2023-11-21T02:54:10;88.43;;;18.58;;
18520;SDS011;9390;51.244;6.982;2023-11-21T02:56:42;77.90;;;18.50;;
18520;SDS011;9390;51.244;6.982;2023-11-21T02:59:13;73.20;;;16.58;;
18520;SDS011;9390;51.244;6.982;2023-11-21T03:01:45;80.97;;;18.10;;
18520;SDS011;9390;51.244;6.982;2023-11-21T03:04:17;81.05;;;19.40;;
18520;SDS011;9390;51.244;6.982;2023-11-21T03:06:49;85.30;;;20.30;;
18520;SDS011;9390;51.244;6.982;2023-11-21T03:09:22;95.68;;;19.20;;
18520;SDS011;9390;51.244;6.982;2023-11-21T03:11:53;105.88;;;20.27;;
18520;SDS011;9390;51.244;6.982;2023-11-21T03:14:24;87.82;;;19.15;;
18520;SDS011;9390;51.244;6.982;2023-11-21T03:16:56;81.68;;;19.73;;
18520;SDS011;9390;51.244;6.982;2023-11-21T03:19:27;84.53;;;20.35;;
18520;SDS011;9390;51.244;6.982;2023-11-21T03:21:58;88.10;;;20.98;;
18520;SDS011;9390;51.244;6.982;2023-11-21T03:24:31;83.90;;;18.65;;
18520;SDS011;9390;51.244;6.982;2023-11-21T03:27:03;62.75;;;17.63;;
18520;SDS011;9390;51.244;6.982;2023-11-21T03:29:35;88.43;;;18.92;;
18520;SDS011;9390;51.244;6.982;2023-11-21T03:32:06;74.40;;;17.75;;
18520;SDS011;9390;51.244;6.982;2023-11-21T03:34:52;82.00;;;18.40;;
18520;SDS011;9390;51.244;6.982;2023-11-21T03:37:24;72.82;;;17.55;;
18520;SDS011;9390;51.244;6.982;2023-11-21T03:39:58;67.20;;;17.42;;
18520;SDS011;9390;51.244;6.982;2023-11-21T03:42:30;97.20;;;19.67;;
18520;SDS011;9390;51.244;6.982;2023-11-21T03:45:01;83.15;;;18.00;;
18520;SDS011;9390;51.244;6.982;2023-11-21T03:47:34;80.30;;;17.33;;
18520;SDS011;9390;51.244;6.982;2023-11-21T03:50:06;90.85;;;18.27;;
18520;SDS011;9390;51.244;6.982;2023-11-21T03:52:38;77.18;;;18.52;;
18520;SDS011;9390;51.244;6.982;2023-11-21T03:55:11;56.28;;;16.83;;
18520;SDS011;9390;51.244;6.982;2023-11-21T03:57:45;86.13;;;18.83;;
18520;SDS011;9390;51.244;6.982;2023-11-21T04:00:18;72.07;;;18.08;;
18520;SDS011;9390;51.244;6.982;2023-11-21T04:02:50;76.10;;;18.33;;
18520;SDS011;9390;51.244;6.982;2023-11-21T04:05:23;114.47;;;18.98;;
18520;SDS011;9390;51.244;6.982;2023-11-21T04:07:54;60.42;;;16.90;;
18520;SDS011;9390;51.244;6.982;2023-11-21T04:10:27;66.97;;;16.55;;
18520;SDS011;9390;51.244;6.982;2023-11-21T04:12:58;67.97;;;18.00;;
18520;SDS011;9390;51.244;6.982;2023-11-21T04:15:30;96.55;;;17.35;;
18520;SDS011;9390;51.244;6.982;2023-11-21T04:18:02;90.35;;;18.33;;
18520;SDS011;9390;51.244;6.982;2023-11-21T04:20:34;64.03;;;17.55;;
18520;SDS011;9390;51.244;6.982;2023-11-21T04:23:05;77.60;;;17.65;;
18520;SDS011;9390;51.244;6.982;2023-11-21T04:25:38;85.25;;;16.98;;
18520;SDS011;9390;51.244;6.982;2023-11-21T04:28:09;64.68;;;16.13;;
18520;SDS011;9390;51.244;6.982;2023-11-21T04:30:40;76.20;;;16.95;;
18520;SDS011;9390;51.244;6.982;2023-11-21T04:33:12;54.28;;;16.45;;
18520;SDS011;9390;51.244;6.982;2023-11-21T04:35:43;47.28;;;15.95;;
18520;SDS011;9390;51.244;6.982;2023-11-21T04:38:14;57.85;;;17.25;;
18520;SDS011;9390;51.244;6.982;2023-11-21T04:40:47;65.38;;;18.95;;
18520;SDS011;9390;51.244;6.982;2023-11-21T04:43:18;62.33;;;19.25;;
18520;SDS011;9390;51.244;6.982;2023-11-21T04:45:50;68.30;;;16.58;;
18520;SDS011;9390;51.244;6.982;2023-11-21T04:48:21;87.82;;;19.55;;
18520;SDS011;9390;51.244;6.982;2023-11-21T04:50:53;104.78;;;18.65;;
18520;SDS011;9390;51.244;6.982;2023-11-21T04:53:24;86.75;;;19.13;;
18520;SDS011;9390;51.244;6.982;2023-11-21T04:55:57;99.97;;;18.20;;
18520;SDS011;9390;51.244;6.982;2023-11-21T05:01:00;94.93;;;18.35;;
18520;SDS011;9390;51.244;6.982;2023-11-21T05:03:31;105.07;;;19.63;;
18520;SDS011;9390;51.244;6.982;2023-11-21T05:06:03;72.20;;;17.30;;
18520;SDS011;9390;51.244;6.982;2023-11-21T05:08:35;64.05;;;17.80;;
18520;SDS011;9390;51.244;6.982;2023-11-21T05:11:08;82.28;;;17.40;;
18520;SDS011;9390;51.244;6.982;2023-11-21T05:13:40;87.50;;;18.52;;
18520;SDS011;9390;51.244;6.982;2023-11-21T05:16:12;94.93;;;17.40;;
18520;SDS011;9390;51.244;6.982;2023-11-21T05:18:44;75.28;;;17.13;;
18520;SDS011;9390;51.244;6.982;2023-11-21T05:21:15;83.43;;;17.10;;
18520;SDS011;9390;51.244;6.982;2023-11-21T05:23:47;63.58;;;17.27;;
18520;SDS011;9390;51.244;6.982;2023-11-21T05:26:20;84.07;;;17.08;;
18520;SDS011;9390;51.244;6.982;2023-11-21T05:28:51;75.22;;;17.00;;
18520;SDS011;9390;51.244;6.982;2023-11-21T05:31:23;62.78;;;15.90;;
18520;SDS011;9390;51.244;6.982;2023-11-21T05:33:54;63.83;;;15.55;;
18520;SDS011;9390;51.244;6.982;2023-11-21T05:36:27;65.10;;;16.20;;
18520;SDS011;9390;51.244;6.982;2023-11-21T05:38:58;71.65;;;16.52;;
18520;SDS011;9390;51.244;6.982;2023-11-21T05:41:31;51.75;;;15.25;;
18520;SDS011;9390;51.244;6.982;2023-11-21T05:44:02;90.93;;;17.33;;
18520;SDS011;9390;51.244;6.982;2023-11-21T05:46:34;65.18;;;16.02;;
18520;SDS011;9390;51.244;6.982;2023-11-21T05:49:05;95.82;;;17.42;;
18520;SDS011;9390;51.244;6.982;2023-11-21T05:51:38;61.58;;;15.80;;
18520;SDS011;9390;51.244;6.982;2023-11-21T05:54:09;113.05;;;19.92;;
18520;SDS011;9390;51.244;6.982;2023-11-21T05:56:45;123.13;;;19.77;;
18520;SDS011;9390;51.244;6.982;2023-11-21T05:59:17;92.57;;;17.20;;
18520;SDS011;9390;51.244;6.982;2023-11-21T06:01:48;75.70;;;17.45;;
18520;SDS011;9390;51.244;6.982;2023-11-21T06:04:19;139.43;;;19.67;;
18520;SDS011;9390;51.244;6.982;2023-11-21T06:06:54;60.88;;;16.83;;
18520;SDS011;9390;51.244;6.982;2023-11-21T06:09:25;93.65;;;17.83;;
18520;SDS011;9390;51.244;6.982;2023-11-21T06:11:58;49.85;;;15.45;;
18520;SDS011;9390;51.244;6.982;2023-11-21T06:14:29;71.13;;;17.15;;
18520;SDS011;9390;51.244;6.982;2023-11-21T06:17:03;63.20;;;16.55;;
18520;SDS011;9390;51.244;6.982;2023-11-21T06:19:34;75.82;;;17.23;;
18520;SDS011;9390;51.244;6.982;2023-11-21T06:22:06;102.00;;;18.77;;
18520;SDS011;9390;51.244;6.982;2023-11-21T06:24:38;91.10;;;18.17;;
18520;SDS011;9390;51.244;6.982;2023-11-21T06:27:12;84.53;;;18.77;;
18520;SDS011;9390;51.244;6.982;2023-11-21T06:29:43;109.60;;;19.42;;
18520;SDS011;9390;51.244;6.982;2023-11-21T06:32:15;125.90;;;19.55;;
18520;SDS011;9390;51.244;6.982;2023-11-21T06:34:46;87.80;;;17.67;;
18520;SDS011;9390;51.244;6.982;2023-11-21T06:37:18;108.53;;;17.95;;
18520;SDS011;9390;51.244;6.982;2023-11-21T06:42:24;71.68;;;16.67;;
18520;SDS011;9390;51.244;6.982;2023-11-21T06:44:55;100.90;;;19.77;;
18520;SDS011;9390;51.244;6.982;2023-11-21T06:47:27;71.25;;;18.55;;
18520;SDS011;9390;51.244;6.982;2023-11-21T06:49:59;101.70;;;19.90;;
18520;SDS011;9390;51.244;6.982;2023-11-21T06:52:31;90.90;;;20.98;;
18520;SDS011;9390;51.244;6.982;2023-11-21T06:55:03;107.43;;;20.00;;
18520;SDS011;9390;51.244;6.982;2023-11-21T06:57:36;84.90;;;19.80;;
18520;SDS011;9390;51.244;6.982;2023-11-21T07:00:08;107.00;;;20.35;;
18520;SDS011;9390;51.244;6.982;2023-11-21T07:02:41;77.15;;;18.65;;
18520;SDS011;9390;51.244;6.982;2023-11-21T07:05:12;97.43;;;19.50;;
18520;SDS011;9390;51.244;6.982;2023-11-21T07:07:44;108.32;;;20.75;;
18520;SDS011;9390;51.244;6.982;2023-11-21T07:10:16;87.80;;;19.40;;
18520;SDS011;9390;51.244;6.982;2023-11-21T07:12:49;114.15;;;19.00;;
18520;SDS011;9390;51.244;6.982;2023-11-21T07:15:21;88.03;;;19.58;;
18520;SDS011;9390;51.244;6.982;2023-11-21T07:17:52;92.20;;;20.02;;
18520;SDS011;9390;51.244;6.982;2023-11-21T07:20:24;105.65;;;20.10;;
18520;SDS011;9390;51.244;6.982;2023-11-21T07:22:55;151.90;;;22.23;;
18520;SDS011;9390;51.244;6.982;2023-11-21T07:25:28;123.20;;;22.08;;
18520;SDS011;9390;51.244;6.982;2023-11-21T07:28:00;111.50;;;21.27;;
18520;SDS011;9390;51.244;6.982;2023-11-21T07:30:32;79.82;;;18.60;;
18520;SDS011;9390;51.244;6.982;2023-11-21T07:33:03;71.25;;;18.63;;
18520;SDS011;9390;51.244;6.982;2023-11-21T07:35:35;85.03;;;19.38;;
18520;SDS011;9390;51.244;6.982;2023-11-21T07:38:06;98.68;;;19.27;;
18520;SDS011;9390;51.244;6.982;2023-11-21T07:40:38;85.85;;;19.27;;
18520;SDS011;9390;51.244;6.982;2023-11-21T07:43:10;93.85;;;18.17;;
18520;SDS011;9390;51.244;6.982;2023-11-21T07:45:42;102.20;;;21.20;;
18520;SDS011;9390;51.244;6.982;2023-11-21T07:48:13;105.55;;;21.58;;
18520;SDS011;9390;51.244;6.982;2023-11-21T07:50:45;122.25;;;21.60;;
18520;SDS011;9390;51.244;6.982;2023-11-21T07:53:17;84.07;;;20.60;;
18520;SDS011;9390;51.244;6.982;2023-11-21T07:55:49;106.78;;;21.13;;
18520;SDS011;9390;51.244;6.982;2023-11-21T07:58:21;106.65;;;23.00;;
18520;SDS011;9390;51.244;6.982;2023-11-21T08:00:53;102.15;;;21.90;;
18520;SDS011;9390;51.244;6.982;2023-11-21T08:03:25;86.60;;;23.27;;
18520;SDS011;9390;51.244;6.982;2023-11-21T08:05:57;109.40;;;22.65;;
18520;SDS011;9390;51.244;6.982;2023-11-21T08:08:29;115.78;;;21.50;;
18520;SDS011;9390;51.244;6.982;2023-11-21T08:13:34;132.43;;;25.58;;
18520;SDS011;9390;51.244;6.982;2023-11-21T08:16:06;154.90;;;25.17;;
18520;SDS011;9390;51.244;6.982;2023-11-21T08:18:38;210.35;;;27.40;;
18520;SDS011;9390;51.244;6.982;2023-11-21T08:21:12;212.43;;;28.38;;
18520;SDS011;9390;51.244;6.982;2023-11-21T08:23:43;162.15;;;28.05;;
18520;SDS011;9390;51.244;6.982;2023-11-21T08:26:15;159.63;;;27.80;;
18520;SDS011;9390;51.244;6.982;2023-11-21T08:28:49;168.35;;;26.73;;
18520;SDS011;9390;51.244;6.982;2023-11-21T08:31:25;174.93;;;27.85;;
18520;SDS011;9390;51.244;6.982;2023-11-21T08:33:57;239.18;;;27.73;;
18520;SDS011;9390;51.244;6.982;2023-11-21T08:36:28;218.98;;;27.05;;
18520;SDS011;9390;51.244;6.982;2023-11-21T08:41:33;193.07;;;25.67;;
18520;SDS011;9390;51.244;6.982;2023-11-21T08:44:06;189.52;;;24.55;;
18520;SDS011;9390;51.244;6.982;2023-11-21T08:46:38;244.05;;;25.08;;
18520;SDS011;9390;51.244;6.982;2023-11-21T08:49:11;165.77;;;23.65;;
18520;SDS011;9390;51.244;6.982;2023-11-21T08:51:47;160.98;;;22.90;;
18520;SDS011;9390;51.244;6.982;2023-11-21T08:54:18;157.35;;;21.45;;
18520;SDS011;9390;51.244;6.982;2023-11-21T08:56:50;170.82;;;23.35;;
18520;SDS011;9390;51.244;6.982;2023-11-21T08:59:22;186.13;;;24.38;;
18520;SDS011;9390;51.244;6.982;2023-11-21T09:01:54;150.15;;;21.73;;
18520;SDS011;9390;51.244;6.982;2023-11-21T09:04:26;145.57;;;21.55;;
18520;SDS011;9390;51.244;6.982;2023-11-21T09:06:57;142.63;;;23.08;;
18520;SDS011;9390;51.244;6.982;2023-11-21T09:09:30;153.70;;;21.90;;
18520;SDS011;9390;51.244;6.982;2023-11-21T09:12:01;130.18;;;23.02;;
18520;SDS011;9390;51.244;6.982;2023-11-21T09:14:34;180.23;;;23.88;;
18520;SDS011;9390;51.244;6.982;2023-11-21T09:17:06;136.35;;;22.38;;
18520;SDS011;9390;51.244;6.982;2023-11-21T09:19:40;121.00;;;21.65;;
18520;SDS011;9390;51.244;6.982;2023-11-21T09:22:13;125.75;;;20.50;;
18520;SDS011;9390;51.244;6.982;2023-11-21T09:24:45;98.80;;;19.55;;
18520;SDS011;9390;51.244;6.982;2023-11-21T09:27:16;101.47;;;19.48;;
18520;SDS011;9390;51.244;6.982;2023-11-21T09:29:49;115.80;;;20.30;;
18520;SDS011;9390;51.244;6.982;2023-11-21T09:32:20;111.75;;;21.17;;
18520;SDS011;9390;51.244;6.982;2023-11-21T09:34:52;116.40;;;21.45;;
18520;SDS011;9390;51.244;6.982;2023-11-21T09:39:57;117.95;;;19.60;;
18520;SDS011;9390;51.244;6.982;2023-11-21T09:42:30;130.23;;;20.92;;
18520;SDS011;9390;51.244;6.982;2023-11-21T09:45:05;115.43;;;20.33;;
18520;SDS011;9390;51.244;6.982;2023-11-21T09:47:40;110.97;;;20.17;;
18520;SDS011;9390;51.244;6.982;2023-11-21T09:50:12;118.22;;;20.90;;
18520;SDS011;9390;51.244;6.982;2023-11-21T09:52:48;141.88;;;22.60;;
18520;SDS011;9390;51.244;6.982;2023-11-21T09:55:25;118.90;;;21.58;;
18520;SDS011;9390;51.244;6.982;2023-11-21T09:57:58;121.00;;;21.90;;
18520;SDS011;9390;51.244;6.982;2023-11-21T10:00:32;118.65;;;19.75;;
18520;SDS011;9390;51.244;6.982;2023-11-21T10:03:04;121.20;;;20.25;;
18520;SDS011;9390;51.244;6.982;2023-11-21T10:05:35;123.22;;;20.48;;
18520;SDS011;9390;51.244;6.982;2023-11-21T10:08:07;109.18;;;18.73;;
18520;SDS011;9390;51.244;6.982;2023-11-21T10:10:42;114.10;;;21.02;;
18520;SDS011;9390;51.244;6.982;2023-11-21T10:13:14;97.80;;;20.52;;
18520;SDS011;9390;51.244;6.982;2023-11-21T10:15:49;100.28;;;18.58;;
18520;SDS011;9390;51.244;6.982;2023-11-21T10:18:21;89.28;;;19.10;;
18520;SDS011;9390;51.244;6.982;2023-11-21T10:20:55;86.25;;;19.38;;
18520;SDS011;9390;51.244;6.982;2023-11-21T10:23:27;106.15;;;20.88;;
18520;SDS011;9390;51.244;6.982;2023-11-21T10:25:59;85.07;;;18.92;;
18520;SDS011;9390;51.244;6.982;2023-11-21T10:28:34;89.60;;;17.87;;
18520;SDS011;9390;51.244;6.982;2023-11-21T10:31:08;95.45;;;18.90;;
18520;SDS011;9390;51.244;6.982;2023-11-21T10:33:40;89.07;;;16.83;;
18520;SDS011;9390;51.244;6.982;2023-11-21T10:36:11;79.82;;;18.83;;
18520;SDS011;9390;51.244;6.982;2023-11-21T10:38:43;82.57;;;17.98;;
18520;SDS011;9390;51.244;6.982;2023-11-21T10:41:15;95.57;;;18.25;;
18520;SDS011;9390;51.244;6.982;2023-11-21T10:43:49;84.18;;;17.13;;
18520;SDS011;9390;51.244;6.982;2023-11-21T10:46:26;71.78;;;17.02;;
18520;SDS011;9390;51.244;6.982;2023-11-21T10:49:00;90.47;;;18.60;;
18520;SDS011;9390;51.244;6.982;2023-11-21T10:51:32;84.38;;;17.38;;
18520;SDS011;9390;51.244;6.982;2023-11-21T10:54:03;68.88;;;16.48;;
18520;SDS011;9390;51.244;6.982;2023-11-21T10:56:35;77.82;;;17.75;;
18520;SDS011;9390;51.244;6.982;2023-11-21T10:59:10;83.20;;;17.90;;
18520;SDS011;9390;51.244;6.982;2023-11-21T11:01:46;89.45;;;17.73;;
18520;SDS011;9390;51.244;6.982;2023-11-21T11:04:19;96.65;;;19.55;;
18520;SDS011;9390;51.244;6.982;2023-11-21T11:06:54;106.65;;;21.67;;
18520;SDS011;9390;51.244;6.982;2023-11-21T11:09:27;107.40;;;21.08;;
18520;SDS011;9390;51.244;6.982;2023-11-21T11:11:58;97.80;;;19.20;;
18520;SDS011;9390;51.244;6.982;2023-11-21T11:14:31;83.78;;;18.70;;
18520;SDS011;9390;51.244;6.982;2023-11-21T11:17:04;81.60;;;17.38;;
18520;SDS011;9390;51.244;6.982;2023-11-21T11:19:37;85.47;;;18.77;;
18520;SDS011;9390;51.244;6.982;2023-11-21T11:22:12;88.60;;;20.23;;
18520;SDS011;9390;51.244;6.982;2023-11-21T11:24:55;93.85;;;19.58;;
18520;SDS011;9390;51.244;6.982;2023-11-21T11:27:37;95.07;;;20.20;;
18520;SDS011;9390;51.244;6.982;2023-11-21T11:30:19;109.80;;;22.67;;
18520;SDS011;9390;51.244;6.982;2023-11-21T11:33:01;95.78;;;20.38;;
18520;SDS011;9390;51.244;6.982;2023-11-21T11:35:39;103.22;;;21.73;;
18520;SDS011;9390;51.244;6.982;2023-11-21T11:38:15;107.88;;;21.45;;
18520;SDS011;9390;51.244;6.982;2023-11-21T11:40:47;113.40;;;22.02;;
18520;SDS011;9390;51.244;6.982;2023-11-21T11:43:24;106.05;;;20.15;;
18520;SDS011;9390;51.244;6.982;2023-11-21T11:45:56;92.95;;;19.63;;
18520;SDS011;9390;51.244;6.982;2023-11-21T11:48:31;112.07;;;21.05;;
18520;SDS011;9390;51.244;6.982;2023-11-21T11:51:09;90.35;;;19.38;;
18520;SDS011;9390;51.244;6.982;2023-11-21T11:53:44;85.65;;;21.00;;
18520;SDS011;9390;51.244;6.982;2023-11-21T11:56:24;109.32;;;21.13;;
18520;SDS011;9390;51.244;6.982;2023-11-21T11:58:57;97.93;;;22.05;;
18520;SDS011;9390;51.244;6.982;2023-11-21T12:01:30;103.20;;;20.48;;
18520;SDS011;9390;51.244;6.982;2023-11-21T12:07:05;78.80;;;16.90;;
18520;SDS011;9390;51.244;6.982;2023-11-21T12:09:37;67.22;;;17.42;;
18520;SDS011;9390;51.244;6.982;2023-11-21T12:12:08;64.80;;;16.13;;
18520;SDS011;9390;51.244;6.982;2023-11-21T12:14:39;86.50;;;17.55;;
18520;SDS011;9390;51.244;6.982;2023-11-21T12:17:11;69.55;;;18.17;;
18520;SDS011;9390;51.244;6.982;2023-11-21T12:19:44;63.30;;;17.77;;
18520;SDS011;9390;51.244;6.982;2023-11-21T12:22:16;92.43;;;19.48;;
18520;SDS011;9390;51.244;6.982;2023-11-21T12:24:48;65.77;;;16.97;;
18520;SDS011;9390;51.244;6.982;2023-11-21T12:27:20;82.93;;;19.35;;
18520;SDS011;9390;51.244;6.982;2023-11-21T12:29:52;77.78;;;18.92;;
18520;SDS011;9390;51.244;6.982;2023-11-21T12:32:25;78.40;;;18.92;;
18520;SDS011;9390;51.244;6.982;2023-11-21T12:34:58;68.18;;;18.17;;
18520;SDS011;9390;51.244;6.982;2023-11-21T12:37:30;79.72;;;18.85;;
18520;SDS011;9390;51.244;6.982;2023-11-21T12:40:02;80.82;;;19.75;;
18520;SDS011;9390;51.244;6.982;2023-11-21T12:42:34;87.60;;;20.55;;
18520;SDS011;9390;51.244;6.982;2023-11-21T12:45:07;78.57;;;19.55;;
18520;SDS011;9390;51.244;6.982;2023-11-21T12:47:44;68.32;;;19.35;;
18520;SDS011;9390;51.244;6.982;2023-11-21T12:50:17;73.32;;;19.33;;
18520;SDS011;9390;51.244;6.982;2023-11-21T12:52:53;90.35;;;21.55;;
18520;SDS011;9390;51.244;6.982;2023-11-21T12:55:25;80.20;;;21.40;;
18520;SDS011;9390;51.244;6.982;2023-11-21T12:57:56;84.88;;;20.73;;
18520;SDS011;9390;51.244;6.982;2023-11-21T13:00:31;71.85;;;21.10;;
18520;SDS011;9390;51.244;6.982;2023-11-21T13:06:09;76.43;;;20.90;;
18520;SDS011;9390;51.244;6.982;2023-11-21T13:08:43;80.75;;;22.58;;
18520;SDS011;9390;51.244;6.982;2023-11-21T13:13:47;78.97;;;21.50;;
18520;SDS011;9390;51.244;6.982;2023-11-21T13:16:19;82.65;;;21.80;;
18520;SDS011;9390;51.244;6.982;2023-11-21T13:18:51;83.20;;;21.98;;
18520;SDS011;9390;51.244;6.982;2023-11-21T13:21:24;86.72;;;20.25;;
18520;SDS011;9390;51.244;6.982;2023-11-21T13:23:55;82.32;;;20.52;;
18520;SDS011;9390;51.244;6.982;2023-11-21T13:26:27;78.22;;;21.58;;
18520;SDS011;9390;51.244;6.982;2023-11-21T13:28:58;83.97;;;21.52;;
18520;SDS011;9390;51.244;6.982;2023-11-21T13:31:30;89.10;;;22.58;;
18520;SDS011;9390;51.244;6.982;2023-11-21T13:34:02;76.72;;;20.33;;
18520;SDS011;9390;51.244;6.982;2023-11-21T13:36:36;82.55;;;21.02;;
18520;SDS011;9390;51.244;6.982;2023-11-21T13:39:08;76.55;;;20.65;;
18520;SDS011;9390;51.244;6.982;2023-11-21T13:41:45;94.28;;;22.00;;
18520;SDS011;9390;51.244;6.982;2023-11-21T13:44:18;86.63;;;21.52;;
18520;SDS011;9390;51.244;6.982;2023-11-21T13:46:56;78.05;;;21.08;;
18520;SDS011;9390;51.244;6.982;2023-11-21T13:49:29;96.05;;;23.00;;
18520;SDS011;9390;51.244;6.982;2023-11-21T13:52:06;97.32;;;23.35;;
18520;SDS011;9390;51.244;6.982;2023-11-21T13:57:09;103.65;;;24.38;;
18520;SDS011;9390;51.244;6.982;2023-11-21T13:59:41;108.20;;;24.40;;
18520;SDS011;9390;51.244;6.982;2023-11-21T14:04:48;87.80;;;22.95;;
18520;SDS011;9390;51.244;6.982;2023-11-21T14:07:26;76.55;;;23.35;;
18520;SDS011;9390;51.244;6.982;2023-11-21T14:10:03;78.03;;;24.98;;
18520;SDS011;9390;51.244;6.982;2023-11-21T14:12:35;73.18;;;25.13;;
18520;SDS011;9390;51.244;6.982;2023-11-21T14:15:09;62.05;;;22.30;;
18520;SDS011;9390;51.244;6.982;2023-11-21T14:17:42;66.38;;;23.90;;
18520;SDS011;9390;51.244;6.982;2023-11-21T14:20:14;57.03;;;21.80;;
18520;SDS011;9390;51.244;6.982;2023-11-21T14:22:48;56.05;;;21.13;;
18520;SDS011;9390;51.244;6.982;2023-11-21T14:25:20;43.60;;;18.02;;
18520;SDS011;9390;51.244;6.982;2023-11-21T14:27:52;45.50;;;17.65;;
18520;SDS011;9390;51.244;6.982;2023-11-21T14:30:24;46.22;;;16.42;;
18520;SDS011;9390;51.244;6.982;2023-11-21T14:32:56;38.33;;;15.40;;
18520;SDS011;9390;51.244;6.982;2023-11-21T14:35:27;40.85;;;15.98;;
18520;SDS011;9390;51.244;6.982;2023-11-21T14:38:01;49.42;;;15.85;;
18520;SDS011;9390;51.244;6.982;2023-11-21T14:40:34;36.28;;;14.43;;
18520;SDS011;9390;51.244;6.982;2023-11-21T14:43:06;36.00;;;13.73;;
18520;SDS011;9390;51.244;6.982;2023-11-21T14:45:38;37.42;;;14.13;;
18520;SDS011;9390;51.244;6.982;2023-11-21T14:48:09;32.67;;;12.90;;
18520;SDS011;9390;51.244;6.982;2023-11-21T14:50:45;35.13;;;13.48;;
18520;SDS011;9390;51.244;6.982;2023-11-21T14:53:43;36.72;;;13.82;;
18520;SDS011;9390;51.244;6.982;2023-11-21T14:56:23;33.05;;;13.65;;
18520;SDS011;9390;51.244;6.982;2023-11-21T14:59:00;34.88;;;13.57;;
18520;SDS011;9390;51.244;6.982;2023-11-21T15:01:36;33.78;;;14.00;;
18520;SDS011;9390;51.244;6.982;2023-11-21T15:04:16;36.75;;;13.98;;
18520;SDS011;9390;51.244;6.982;2023-11-21T15:06:58;42.35;;;17.05;;
18520;SDS011;9390;51.244;6.982;2023-11-21T15:09:30;43.53;;;17.10;;
18520;SDS011;9390;51.244;6.982;2023-11-21T15:12:11;38.90;;;16.40;;
18520;SDS011;9390;51.244;6.982;2023-11-21T15:14:46;48.92;;;17.83;;
18520;SDS011;9390;51.244;6.982;2023-11-21T15:17:23;44.10;;;16.55;;
18520;SDS011;9390;51.244;6.982;2023-11-21T15:19:56;45.72;;;18.00;;
18520;SDS011;9390;51.244;6.982;2023-11-21T15:22:27;44.28;;;17.48;;
18520;SDS011;9390;51.244;6.982;2023-11-21T15:25:00;46.90;;;18.65;;
18520;SDS011;9390;51.244;6.982;2023-11-21T15:27:37;41.33;;;16.77;;
18520;SDS011;9390;51.244;6.982;2023-11-21T15:30:09;44.80;;;16.63;;
18520;SDS011;9390;51.244;6.982;2023-11-21T15:32:41;46.95;;;16.75;;
18520;SDS011;9390;51.244;6.982;2023-11-21T15:35:12;46.35;;;16.98;;